Dalias, Spain

12:08 AM CET on January 23, 2019 (GMT +0100)
El Aguila | | Change Station

Elev 1060 ft 36.81 °N, 2.77 °W | Updated 2 minutes ago

Overcast
Overcast
49.1 °F
Feels Like 47 °F
N
4.5
Wind Variable Wind from NNE
Gusts 4.5 mph

Today
High -- | Low -- °F
--% Chance of Precip.
Yesterday
High -- | Low -- °F
Precip. -- in
Pressure 29.92 in
Visibility 6.2 miles
Clouds Scattered Clouds 8000 ft
Windchill 47 °F
Dew Point -10 °F
Humidity 8%
Rainfall 0.00 in
Snow Depth Not available.
8:20 AM 6:26 PM
Waning Gibbous, 95% visible
METAR LEAM 222300Z AUTO 30010KT 9999 SCT080 13/03 Q1013
Pressure 29.92 in
Visibility 6.2 miles
Clouds Scattered Clouds 8000 ft
Windchill 47 °F
Dew Point -10 °F
Humidity 8%
Rainfall 0.00 in
Snow Depth Not available.
8:20 AM 6:26 PM
Waning Gibbous, 95% visible
METAR LEAM 222300Z AUTO 30010KT 9999 SCT080 13/03 Q1013

Get Severe Weather Alerts

Thanks for signing up!

Be on the lookout for a verification email in your inbox.

You'll start receiving the daily forecast at 6 AM.

×

10-Day Weather Forecast

×

Almanac

Astronomy

Jan. 23, 2019 Rise Set
Actual Time
Civil Twilight
Nautical Twilight
Astronomical Twilight
Moon
Length of Visible Light
Length of Day
Tomorrow will be .
, % of the Moon is Illuminated

Today's Extremes

Country Highs Country Lows

Community

WunderPhotos

Category 6

Welcome to Category 6. This is the collective home for Weather Underground's featured writeups by Dr. Jeff Masters (right), Bob Henson (left), Chris Burt, and other regular contributors.

Nearby

Air Quality

  Air Quality AQ Index Pollutant
Not available.

Snow Depth

Station Depth Elevation

Earthquake Activity

City Distance Mag. Time & Date
Minimum magnitude displayed is 2.5.

Coastal Water Temperatures

Place Temperature

Stations

Nearby Weather Stations

Station Location Temp. Windchill Dew Point Humidity Wind Precip. Elev Updated Type